Time;durP1;ratioP1;P1;durP2;ratioP2;P2;SDS_P1;SDS_P2;PMS_P1;PMS_P2;Temp;Humidity;BMP_temperature;BMP_pressure;BME280_temperature;BME280_humidity;BME280_pressure;Samples;Min_cycle;Max_cycle;Signal;HPM_P1;HPM_P2
2023/06/02 00:01:15;;;;;;;11.07;3.70;;;;;;;11.46;65.34;101195.63;5024228;28;20203;-76
2023/06/02 00:03:44;;;;;;;9.77;3.50;;;;;;;11.45;65.26;101194.75;5025369;28;20225;-74
2023/06/02 00:06:14;;;;;;;7.43;3.43;;;;;;;11.45;65.28;101193.91;5028620;28;20285;-73
2023/06/02 00:08:41;;;;;;;10.20;4.30;;;;;;;11.44;65.17;101198.38;5023838;28;20525;-76
2023/06/02 00:11:09;;;;;;;12.03;4.00;;;;;;;11.44;65.13;101194.84;5026282;28;20210;-76
2023/06/02 00:13:36;;;;;;;9.70;4.27;;;;;;;11.41;65.26;101193.22;5025084;28;20226;-75
2023/06/02 00:16:03;;;;;;;11.13;4.00;;;;;;;11.41;65.33;101190.53;5024252;28;20757;-74
2023/06/02 00:18:32;;;;;;;8.40;4.23;;;;;;;11.41;65.46;101195.03;5026871;28;20206;-75
2023/06/02 00:21:01;;;;;;;13.43;5.07;;;;;;;11.43;65.53;101198.47;5020005;28;20264;-76
2023/06/02 00:23:29;;;;;;;11.87;4.30;;;;;;;11.44;65.77;101192.19;5022787;28;20286;-74
2023/06/02 00:25:55;;;;;;;12.77;4.67;;;;;;;11.47;65.93;101190.16;5027537;28;20230;-76
2023/06/02 00:28:22;;;;;;;12.90;5.13;;;;;;;11.47;65.89;101186.63;5019568;28;20214;-75
2023/06/02 00:30:49;;;;;;;13.83;5.73;;;;;;;11.46;65.87;101192.94;5026356;28;20209;-75
2023/06/02 00:33:15;;;;;;;12.60;6.17;;;;;;;11.46;65.97;101190.28;5025275;28;20628;-76
2023/06/02 00:35:42;;;;;;;9.63;5.67;;;;;;;11.47;66.16;101197.31;5023389;28;20677;-76
2023/06/02 00:38:10;;;;;;;14.27;5.23;;;;;;;11.47;66.20;101194.63;5025643;28;20211;-74
2023/06/02 00:40:36;;;;;;;11.97;4.77;;;;;;;11.46;66.25;101193.78;5026210;28;20289;-75
2023/06/02 00:43:03;;;;;;;12.67;4.03;;;;;;;11.45;66.19;101191.22;5027835;28;20474;-76
2023/06/02 00:45:30;;;;;;;14.87;4.53;;;;;;;11.44;66.10;101194.84;5022787;28;20210;-75
2023/06/02 00:47:56;;;;;;;10.73;3.87;;;;;;;11.39;65.89;101181.78;5027331;28;20230;-76
2023/06/02 00:50:25;;;;;;;9.23;3.63;;;;;;;11.38;65.90;101184.53;5024160;28;20212;-75
2023/06/02 00:52:54;;;;;;;11.07;3.57;;;;;;;11.36;65.95;101186.41;5029637;28;20302;-76
2023/06/02 00:55:22;;;;;;;13.40;4.17;;;;;;;11.32;65.68;101185.72;5026713;28;20659;-75
2023/06/02 00:57:51;;;;;;;10.33;3.60;;;;;;;11.30;65.40;101184.94;5025102;28;20236;-76
2023/06/02 01:00:19;;;;;;;7.77;3.23;;;;;;;11.26;65.30;101190.56;5024425;28;20205;-76
2023/06/02 01:02:46;;;;;;;9.17;3.53;;;;;;;11.24;65.53;101187.13;5025375;28;20203;-76
2023/06/02 01:05:14;;;;;;;14.87;3.97;;;;;;;11.24;65.65;101188.00;5025658;28;20287;-74
2023/06/02 01:07:44;;;;;;;8.10;3.20;;;;;;;11.24;65.57;101192.47;5027967;28;20231;-75
2023/06/02 01:10:13;;;;;;;8.07;3.70;;;;;;;11.23;65.61;101188.09;5018549;28;20212;-75
2023/06/02 01:12:42;;;;;;;11.90;4.10;;;;;;;11.21;65.49;101193.50;5022357;28;20231;-76
2023/06/02 01:15:09;;;;;;;8.70;3.70;;;;;;;11.21;65.48;101203.31;5020028;28;20232;-75
2023/06/02 01:17:36;;;;;;;8.53;3.30;;;;;;;11.19;65.61;101197.19;5022063;28;20263;-75
2023/06/02 01:20:09;;;;;;;12.07;3.53;;;;;;;11.18;65.44;101195.47;5023906;28;20207;-75
2023/06/02 01:22:43;;;;;;;12.37;3.50;;;;;;;11.16;65.53;101205.34;5022574;28;20206;-76
2023/06/02 01:25:21;;;;;;;11.47;4.93;;;;;;;11.15;65.44;101199.16;5024614;28;20604;-76
2023/06/02 01:27:48;;;;;;;8.80;3.40;;;;;;;11.12;65.40;101199.34;5024863;28;20238;-74
2023/06/02 01:30:16;;;;;;;8.47;3.30;;;;;;;11.09;65.41;101195.06;5023586;28;20205;-75
2023/06/02 01:32:51;;;;;;;10.23;3.30;;;;;;;11.09;65.62;101191.53;5025324;28;20202;-76
2023/06/02 01:35:20;;;;;;;10.57;4.70;;;;;;;11.08;65.66;101197.81;5025413;28;20229;-76
2023/06/02 01:37:50;;;;;;;9.33;3.60;;;;;;;11.08;65.70;101198.69;5024906;28;20228;-76
2023/06/02 01:40:17;;;;;;;11.60;4.00;;;;;;;11.09;65.71;101194.22;5022041;28;20229;-76
2023/06/02 01:42:46;;;;;;;13.33;3.43;;;;;;;11.09;65.62;101187.06;5023775;28;20211;-76
2023/06/02 01:45:12;;;;;;;10.37;4.37;;;;;;;11.09;65.85;101191.53;5027936;28;20200;-76
2023/06/02 01:47:39;;;;;;;15.17;5.10;;;;;;;11.08;65.77;101192.50;5026118;28;20227;-76
2023/06/02 01:50:07;;;;;;;15.23;4.30;;;;;;;11.07;65.83;101190.75;5028164;28;20215;-76
2023/06/02 01:52:33;;;;;;;10.40;4.03;;;;;;;11.04;65.73;101182.94;5024108;28;20213;-75
2023/06/02 01:55:00;;;;;;;8.97;4.20;;;;;;;11.02;65.71;101192.81;5026952;28;20231;-76
2023/06/02 01:57:28;;;;;;;9.73;3.90;;;;;;;11.01;65.75;101191.09;5022524;28;20308;-77
2023/06/02 01:59:55;;;;;;;9.87;4.37;;;;;;;10.98;65.75;101192.13;5023588;28;20227;-74
2023/06/02 02:02:22;;;;;;;8.90;4.23;;;;;;;10.97;65.90;101192.22;5023233;28;20206;-76
2023/06/02 02:04:49;;;;;;;12.63;4.50;;;;;;;10.97;65.99;101195.75;5026529;28;20550;-76
2023/06/02 02:07:19;;;;;;;8.17;3.50;;;;;;;10.96;65.98;101196.69;5024465;28;20805;-74
2023/06/02 02:09:46;;;;;;;16.63;3.77;;;;;;;10.95;65.72;101192.28;5019643;28;20205;-75
2023/06/02 02:12:12;;;;;;;13.63;3.50;;;;;;;10.94;65.58;101193.25;5024658;28;20272;-75
2023/06/02 02:14:39;;;;;;;9.47;3.20;;;;;;;10.93;65.43;101186.19;5025204;28;20759;-73
2023/06/02 02:17:07;;;;;;;10.10;3.73;;;;;;;10.93;65.71;101196.84;5022953;28;20356;-76
2023/06/02 02:19:34;;;;;;;14.50;3.40;;;;;;;10.92;65.48;101194.31;5026356;28;20218;-74
2023/06/02 02:22:01;;;;;;;12.77;3.93;;;;;;;10.92;65.73;101187.16;5020367;28;20205;-76
2023/06/02 02:24:27;;;;;;;10.63;3.77;;;;;;;10.94;65.78;101198.56;5025303;28;20325;-76
2023/06/02 02:26:54;;;;;;;12.40;4.13;;;;;;;10.96;65.99;101193.16;5025302;28;20600;-76
2023/06/02 02:29:20;;;;;;;8.63;3.50;;;;;;;10.96;65.96;101193.16;5023121;28;20209;-75
2023/06/02 02:31:47;;;;;;;9.43;3.60;;;;;;;10.96;65.92;101191.34;5019894;28;20206;-76
2023/06/02 02:34:14;;;;;;;14.53;3.50;;;;;;;10.97;66.00;101195.75;5023016;28;20728;-75
2023/06/02 02:36:44;;;;;;;10.63;4.07;;;;;;;10.97;65.89;101190.41;5025634;28;20622;-76
2023/06/02 02:39:11;;;;;;;10.20;3.60;;;;;;;10.97;65.95;101190.41;5028994;28;20707;-75
2023/06/02 02:41:37;;;;;;;11.57;4.37;;;;;;;10.98;66.14;101196.59;5029406;28;22520;-76
2023/06/02 02:44:04;;;;;;;10.53;3.90;;;;;;;10.96;66.15;101188.69;5027809;28;20200;-76
2023/06/02 02:46:30;;;;;;;15.07;3.97;;;;;;;10.96;65.94;101193.16;5017120;28;20471;-74
2023/06/02 02:48:57;;;;;;;11.17;3.73;;;;;;;10.95;66.20;101192.28;5029892;28;20203;-74
2023/06/02 02:51:25;;;;;;;9.60;3.53;;;;;;;10.95;65.90;101192.28;5028710;28;20644;-74
2023/06/02 02:53:52;;;;;;;13.20;4.23;;;;;;;10.93;66.16;101199.50;5026533;28;20302;-74
2023/06/02 02:56:18;;;;;;;10.50;3.60;;;;;;;10.92;66.24;101195.16;5028086;28;20236;-74
2023/06/02 02:58:46;;;;;;;8.63;3.47;;;;;;;10.92;66.48;101195.16;5027352;28;20290;-74
2023/06/02 03:01:15;;;;;;;14.57;3.47;;;;;;;10.93;66.75;101202.19;5023966;28;20670;-74
2023/06/02 03:03:42;;;;;;;11.57;3.47;;;;;;;10.92;66.93;101195.16;5025147;28;20203;-74
2023/06/02 03:06:11;;;;;;;14.87;3.93;;;;;;;10.95;67.18;101197.63;5027884;28;20219;-74
2023/06/02 03:08:38;;;;;;;9.63;3.53;;;;;;;10.96;67.10;101190.50;5024826;28;20203;-75
2023/06/02 03:11:05;;;;;;;12.67;4.00;;;;;;;10.96;67.44;101183.34;5024874;28;20220;-75
2023/06/02 03:13:31;;;;;;;13.37;3.83;;;;;;;10.98;67.51;101191.28;5027182;28;20210;-75
2023/06/02 03:15:58;;;;;;;9.63;3.57;;;;;;;10.98;67.55;101181.47;5024436;28;20233;-75
2023/06/02 03:18:24;;;;;;;10.83;3.93;;;;;;;11.00;67.66;101186.72;5020559;28;20215;-75
2023/06/02 03:20:51;;;;;;;12.83;4.23;;;;;;;11.00;67.62;101189.38;5029809;28;20208;-76
2023/06/02 03:23:18;;;;;;;7.87;3.50;;;;;;;11.00;67.72;101189.38;5027241;28;20211;-75
2023/06/02 03:25:46;;;;;;;10.17;3.73;;;;;;;11.00;67.92;101195.56;5027419;28;20202;-75
2023/06/02 03:28:12;;;;;;;10.67;3.80;;;;;;;11.01;67.98;101199.97;5028750;28;20231;-75
2023/06/02 03:30:39;;;;;;;8.70;4.33;;;;;;;11.01;67.96;101202.63;5026666;28;20612;-75
2023/06/02 03:33:05;;;;;;;13.47;3.73;;;;;;;11.02;67.84;101199.00;5025391;28;20210;-75
2023/06/02 03:35:32;;;;;;;9.20;3.20;;;;;;;11.01;67.82;101197.28;5027327;28;20513;-75
2023/06/02 03:37:58;;;;;;;11.50;3.30;;;;;;;11.00;68.02;101202.72;5027341;28;20233;-75
2023/06/02 03:40:25;;;;;;;10.30;3.40;;;;;;;11.01;68.21;101207.09;5027507;28;20218;-75
2023/06/02 03:42:52;;;;;;;7.53;2.87;;;;;;;11.01;68.09;101205.28;5023504;28;20212;-75
2023/06/02 03:45:19;;;;;;;14.60;4.40;;;;;;;11.01;68.20;101212.41;5027885;28;20231;-75
2023/06/02 03:47:45;;;;;;;9.07;3.20;;;;;;;11.01;68.49;101205.28;5026264;28;20226;-74
2023/06/02 03:50:12;;;;;;;10.43;3.17;;;;;;;11.01;68.43;101204.44;5024830;28;20216;-75
2023/06/02 03:52:38;;;;;;;11.30;3.27;;;;;;;11.00;68.28;101203.56;5024812;28;20210;-75
2023/06/02 03:55:06;;;;;;;9.43;2.67;;;;;;;11.01;68.65;101205.28;5026665;28;20229;-75
2023/06/02 03:57:32;;;;;;;8.13;2.93;;;;;;;11.01;68.90;101205.28;5026049;28;20228;-75
2023/06/02 04:00:00;;;;;;;10.80;3.73;;;;;;;11.03;68.86;101205.22;5026271;28;20210;-75
2023/06/02 04:02:27;;;;;;;10.23;2.80;;;;;;;11.03;69.01;101216.72;5024147;28;20231;-75
2023/06/02 04:04:53;;;;;;;10.10;3.53;;;;;;;11.05;68.91;101214.84;5022479;28;20198;-75
2023/06/02 04:07:19;;;;;;;9.40;3.00;;;;;;;11.05;69.03;101216.66;5023749;28;20627;-75
2023/06/02 04:09:46;;;;;;;8.10;2.73;;;;;;;11.05;69.04;101220.16;5025339;28;20567;-75
2023/06/02 04:12:12;;;;;;;14.87;3.77;;;;;;;11.05;69.28;101225.50;5025260;28;20791;-76
2023/06/02 04:14:39;;;;;;;10.00;3.07;;;;;;;11.04;69.36;101229.13;5027473;28;20238;-75
2023/06/02 04:17:07;;;;;;;11.47;2.93;;;;;;;11.06;69.56;101231.69;5028104;28;20238;-75
2023/06/02 04:19:33;;;;;;;14.47;4.07;;;;;;;11.09;69.80;101228.88;5027377;28;20212;-75
2023/06/02 04:22:00;;;;;;;14.80;3.47;;;;;;;11.09;69.90;101231.53;5028558;28;20207;-75
2023/06/02 04:24:26;;;;;;;10.60;3.97;;;;;;;11.10;69.61;101236.78;5029050;28;20208;-75
2023/06/02 04:26:53;;;;;;;9.70;3.07;;;;;;;11.10;69.78;101239.44;5027402;28;20226;-75
2023/06/02 04:29:19;;;;;;;14.63;3.40;;;;;;;11.10;69.93;101239.44;5026745;28;20571;-76
2023/06/02 04:31:48;;;;;;;9.93;4.03;;;;;;;11.12;70.17;101239.31;5025377;28;20703;-75
2023/06/02 04:34:15;;;;;;;10.83;4.10;;;;;;;11.12;70.24;101239.31;5026478;28;20246;-75
2023/06/02 04:36:42;;;;;;;11.67;3.70;;;;;;;11.11;70.22;101250.94;5023940;28;20231;-75
2023/06/02 04:39:10;;;;;;;9.43;3.40;;;;;;;11.10;70.24;101250.09;5029065;28;20219;-75
2023/06/02 04:41:37;;;;;;;11.20;3.80;;;;;;;11.10;70.40;101251.91;5027636;28;20209;-76
2023/06/02 04:44:05;;;;;;;10.77;4.33;;;;;;;11.11;70.57;101259.78;5020305;28;20224;-75
2023/06/02 04:46:32;;;;;;;12.83;4.57;;;;;;;11.12;70.92;101256.19;5023324;28;20232;-75
2023/06/02 04:48:59;;;;;;;7.60;4.10;;;;;;;11.13;71.02;101260.56;5026765;28;20256;-75
2023/06/02 04:51:30;;;;;;;16.80;5.63;;;;;;;11.18;71.05;101257.66;5016484;28;20233;-75
2023/06/02 04:53:57;;;;;;;10.77;5.03;;;;;;;11.22;71.18;101263.69;5025949;28;20206;-75
2023/06/02 04:56:24;;;;;;;12.10;4.67;;;;;;;11.24;71.05;101261.78;5023560;28;20630;-75
2023/06/02 04:58:50;;;;;;;17.27;4.97;;;;;;;11.25;70.88;101252.84;5027143;28;20234;-75
2023/06/02 05:01:16;;;;;;;11.37;5.13;;;;;;;11.27;71.04;101253.63;5027913;28;21748;-75
2023/06/02 05:03:43;;;;;;;14.43;5.40;;;;;;;11.29;71.08;101254.38;5026118;28;20213;-75
2023/06/02 05:06:09;;;;;;;14.43;4.80;;;;;;;11.32;71.12;101257.72;5025603;28;20232;-75
2023/06/02 05:08:37;;;;;;;16.60;5.37;;;;;;;11.34;71.05;101255.84;5025053;28;20217;-75
2023/06/02 05:11:05;;;;;;;11.50;3.83;;;;;;;11.35;70.93;101249.56;5023480;28;20233;-75
2023/06/02 05:13:31;;;;;;;11.60;4.23;;;;;;;11.36;71.15;101255.75;5022627;28;20299;-75
2023/06/02 05:15:58;;;;;;;12.80;4.80;;;;;;;11.38;71.25;101261.84;5022966;28;20233;-75
2023/06/02 05:18:24;;;;;;;10.60;4.63;;;;;;;11.40;71.32;101258.16;5026825;28;20240;-75
2023/06/02 05:20:51;;;;;;;13.07;4.37;;;;;;;11.45;71.40;101256.09;5025785;28;20224;-75
2023/06/02 05:23:18;;;;;;;13.23;4.00;;;;;;;11.50;71.38;101258.47;5027076;28;20325;-75
2023/06/02 05:25:50;;;;;;;9.20;3.63;;;;;;;11.55;71.59;101252.88;5024567;28;20207;-75
2023/06/02 05:28:16;;;;;;;8.73;3.63;;;;;;;11.58;71.30;101247.38;5023116;28;20205;-72
2023/06/02 05:30:43;;;;;;;11.57;3.80;;;;;;;11.62;71.40;101264.94;5025328;28;20220;-73
2023/06/02 05:33:09;;;;;;;13.30;3.73;;;;;;;11.64;71.33;101253.25;5025416;28;20327;-73
2023/06/02 05:35:36;;;;;;;13.53;3.77;;;;;;;11.67;71.16;101265.50;5026034;28;20233;-72
2023/06/02 05:38:02;;;;;;;10.70;4.13;;;;;;;11.69;71.06;101259.13;5025381;28;20207;-73
2023/06/02 05:40:28;;;;;;;10.87;3.87;;;;;;;11.73;71.12;101263.34;5025503;28;20217;-75
2023/06/02 05:42:56;;;;;;;11.07;4.13;;;;;;;11.76;71.20;101263.22;5026216;28;20588;-74
2023/06/02 05:45:23;;;;;;;14.57;5.40;;;;;;;11.80;71.14;101261.22;5026083;28;20203;-75
2023/06/02 05:47:49;;;;;;;11.03;4.43;;;;;;;11.85;71.22;101256.47;5026327;28;20237;-74
2023/06/02 05:50:16;;;;;;;12.23;4.70;;;;;;;11.89;71.23;101254.47;5023984;28;20204;-75
2023/06/02 05:52:42;;;;;;;17.50;5.80;;;;;;;11.94;71.59;101258.59;5026073;28;20202;-74
2023/06/02 05:55:09;;;;;;;16.70;5.53;;;;;;;11.97;71.29;101258.44;5027244;28;20252;-74
2023/06/02 05:57:37;;;;;;;13.53;5.13;;;;;;;12.00;71.08;101257.38;5026569;28;20234;-74
2023/06/02 06:00:07;;;;;;;19.30;6.23;;;;;;;12.05;70.90;101255.28;5025040;28;20211;-75
2023/06/02 06:02:33;;;;;;;13.50;6.63;;;;;;;12.10;70.86;101261.22;5025403;28;20665;-74
2023/06/02 06:04:59;;;;;;;14.50;6.50;;;;;;;12.15;70.41;101262.66;5024771;28;20693;-75
2023/06/02 06:07:26;;;;;;;11.13;5.27;;;;;;;12.20;70.33;101264.19;5022330;28;20234;-75
2023/06/02 06:09:52;;;;;;;14.83;6.17;;;;;;;12.25;69.93;101265.63;5022953;28;20252;-74
2023/06/02 06:12:19;;;;;;;18.53;6.50;;;;;;;12.28;69.47;101272.59;5029442;28;20210;-74
2023/06/02 06:14:45;;;;;;;13.77;5.73;;;;;;;12.29;69.21;101277.84;5029126;28;20683;-74
2023/06/02 06:17:13;;;;;;;10.77;5.43;;;;;;;12.32;69.33;101275.00;5025591;28;20244;-74
2023/06/02 06:19:39;;;;;;;14.33;5.80;;;;;;;12.38;69.33;101273.75;5031034;28;20209;-72
2023/06/02 06:22:06;;;;;;;15.27;7.13;;;;;;;12.42;69.61;101278.81;5027819;28;20213;-73
2023/06/02 06:24:32;;;;;;;13.93;6.73;;;;;;;12.45;69.54;101278.63;5026226;28;20300;-72
2023/06/02 06:26:59;;;;;;;17.50;7.20;;;;;;;12.44;68.94;101276.91;5027089;28;20222;-74
2023/06/02 06:29:25;;;;;;;19.57;7.67;;;;;;;12.46;69.24;101272.34;5031091;28;20262;-73
2023/06/02 06:31:52;;;;;;;14.80;7.57;;;;;;;12.49;69.14;101271.31;5030121;28;20214;-75
2023/06/02 06:34:19;;;;;;;13.00;7.57;;;;;;;12.49;69.06;101272.16;5028277;28;20210;-74
2023/06/02 06:36:47;;;;;;;10.97;7.60;;;;;;;12.54;69.13;101274.53;5025414;28;20236;-74
2023/06/02 06:39:13;;;;;;;15.83;7.53;;;;;;;12.58;68.95;101285.88;5031556;28;20284;-74
2023/06/02 06:41:42;;;;;;;17.53;7.60;;;;;;;12.60;69.02;101282.16;5026361;28;20210;-74
2023/06/02 06:44:08;;;;;;;12.87;6.77;;;;;;;12.62;68.99;101279.41;5031313;28;20583;-74
2023/06/02 06:46:35;;;;;;;12.13;7.17;;;;;;;12.64;68.76;101283.72;5023005;28;20230;-74
2023/06/02 06:49:01;;;;;;;13.53;6.73;;;;;;;12.67;68.82;101285.34;5027324;28;20210;-74
2023/06/02 06:51:29;;;;;;;14.27;7.30;;;;;;;12.70;69.15;101291.34;5027869;28;20209;-74
2023/06/02 06:53:56;;;;;;;12.90;6.73;;;;;;;12.73;68.79;101296.47;5026862;28;20239;-71
2023/06/02 06:56:22;;;;;;;14.40;6.20;;;;;;;12.76;68.69;101296.31;5026268;28;20226;-71
2023/06/02 06:58:49;;;;;;;13.73;6.90;;;;;;;12.78;69.17;101304.22;5028424;28;20208;-73
2023/06/02 07:01:15;;;;;;;14.00;6.80;;;;;;;12.80;69.15;101292.50;5023784;28;20708;-73
2023/06/02 07:03:41;;;;;;;16.33;7.43;;;;;;;12.82;68.91;101292.41;5026865;28;20202;-72
2023/06/02 07:06:08;;;;;;;15.93;7.83;;;;;;;12.85;69.10;101294.88;5022514;28;20222;-74
2023/06/02 07:08:37;;;;;;;20.10;8.60;;;;;;;12.91;69.19;101301.63;5030463;28;20442;-71
2023/06/02 07:11:03;;;;;;;16.30;7.77;;;;;;;12.94;69.62;101304.97;5020607;28;20216;-73
2023/06/02 07:13:31;;;;;;;18.37;8.13;;;;;;;12.97;69.40;101301.25;5022480;28;20213;-74
2023/06/02 07:15:57;;;;;;;17.00;8.43;;;;;;;13.03;69.52;101300.88;5024626;28;20230;-74
2023/06/02 07:18:23;;;;;;;16.13;7.50;;;;;;;13.06;69.62;101303.38;5024530;28;20630;-72
2023/06/02 07:20:50;;;;;;;15.60;7.87;;;;;;;13.08;69.41;101302.28;5023222;28;20367;-75
2023/06/02 07:23:16;;;;;;;21.23;9.67;;;;;;;13.12;69.35;101302.97;5025416;28;20587;-73
2023/06/02 07:25:45;;;;;;;14.13;7.87;;;;;;;13.18;68.93;101307.97;5023063;28;20256;-73
2023/06/02 07:28:11;;;;;;;14.67;8.57;;;;;;;13.22;68.96;101306.81;5026251;28;20203;-74
2023/06/02 07:30:37;;;;;;;17.87;8.47;;;;;;;13.28;68.97;101303.72;5022353;28;20797;-73
2023/06/02 07:33:04;;;;;;;13.03;7.80;;;;;;;13.34;69.11;101297.13;5020863;28;20211;-76
2023/06/02 07:35:30;;;;;;;17.23;8.20;;;;;;;13.39;68.29;101309.28;5021849;28;20203;-71
2023/06/02 07:37:57;;;;;;;19.17;8.30;;;;;;;13.43;68.51;101313.47;5024062;28;20226;-72
2023/06/02 07:40:23;;;;;;;22.50;9.07;;;;;;;13.52;69.07;101306.66;5026461;28;20210;-72
2023/06/02 07:42:51;;;;;;;16.50;7.87;;;;;;;13.60;68.40;101308.84;5025942;28;20214;-72
2023/06/02 07:45:18;;;;;;;14.80;8.70;;;;;;;13.67;68.16;101310.13;5028989;28;20233;-72
2023/06/02 07:47:45;;;;;;;15.30;8.13;;;;;;;13.73;67.46;101315.09;5027144;28;20222;-70
2023/06/02 07:50:11;;;;;;;16.97;8.27;;;;;;;13.77;67.37;101313.94;5030244;28;20654;-70
2023/06/02 07:52:38;;;;;;;20.97;8.43;;;;;;;13.81;67.05;101315.44;5024521;28;20214;-74
2023/06/02 07:55:05;;;;;;;13.40;7.93;;;;;;;13.84;66.42;101317.91;5026887;28;20206;-72
2023/06/02 07:57:31;;;;;;;18.13;7.57;;;;;;;13.89;66.99;101311.31;5028118;28;20234;-71
2023/06/02 07:59:59;;;;;;;18.50;8.00;;;;;;;13.95;66.76;101319.91;5028179;28;20206;-70
2023/06/02 08:02:25;;;;;;;18.87;8.00;;;;;;;13.98;66.38;101312.47;5027674;28;20217;-71
2023/06/02 08:04:52;;;;;;;14.93;8.10;;;;;;;14.04;66.72;101321.94;5023625;28;20210;-73
2023/06/02 08:07:18;;;;;;;16.00;8.20;;;;;;;14.09;66.34;101322.50;5022996;28;20237;-70
2023/06/02 08:09:45;;;;;;;14.20;7.67;;;;;;;14.16;66.10;101313.06;5021383;28;20218;-73
2023/06/02 08:12:11;;;;;;;13.37;7.60;;;;;;;14.26;66.77;101324.91;5029969;28;20229;-73
2023/06/02 08:14:38;;;;;;;15.50;8.00;;;;;;;14.37;66.02;101314.28;5022440;28;20210;-77
2023/06/02 08:17:06;;;;;;;14.43;7.50;;;;;;;14.46;65.66;101316.38;5020873;28;20226;-71
2023/06/02 08:19:33;;;;;;;10.80;6.87;;;;;;;14.55;65.20;101305.00;5027996;28;20210;-69
2023/06/02 08:22:00;;;;;;;14.03;6.63;;;;;;;14.62;64.79;101304.59;5023714;28;20211;-74
2023/06/02 08:24:28;;;;;;;15.87;8.20;;;;;;;14.73;64.65;101304.69;5023849;28;20209;-72
2023/06/02 08:26:55;;;;;;;11.67;6.70;;;;;;;14.79;64.51;101315.84;5019501;28;20226;-73
2023/06/02 08:29:22;;;;;;;12.77;7.27;;;;;;;14.91;64.26;101319.47;5020275;28;20211;-73
2023/06/02 08:31:48;;;;;;;13.60;7.33;;;;;;;15.03;63.65;101318.63;5026654;28;20199;-70
2023/06/02 08:34:20;;;;;;;12.10;7.03;;;;;;;15.11;63.44;101316.25;5022678;28;20199;-70
2023/06/02 08:36:49;;;;;;;12.33;7.00;;;;;;;15.28;63.83;101309.66;5021282;28;20319;-72
2023/06/02 08:39:17;;;;;;;13.43;7.40;;;;;;;15.50;63.12;101317.88;5021041;28;20250;-67
2023/06/02 08:41:47;;;;;;;16.47;7.17;;;;;;;15.59;62.01;101322.56;5024711;28;20208;-72
2023/06/02 08:44:13;;;;;;;14.93;7.87;;;;;;;15.66;61.26;101320.31;5026721;28;20196;-72
2023/06/02 08:46:40;;;;;;;13.30;6.70;;;;;;;15.68;60.51;101317.50;5027857;28;20296;-73
2023/06/02 08:49:08;;;;;;;11.30;6.40;;;;;;;15.69;60.17;101320.09;5021021;28;20398;-73
2023/06/02 08:51:39;;;;;;;17.57;7.60;;;;;;;15.81;61.13;101324.53;5021210;28;20208;-73
2023/06/02 08:54:06;;;;;;;10.80;7.43;;;;;;;15.96;60.40;101320.69;5022062;28;20287;-73
2023/06/02 08:56:32;;;;;;;10.87;6.97;;;;;;;16.06;59.47;101323.56;5027211;28;20236;-73
2023/06/02 08:58:59;;;;;;;13.70;6.63;;;;;;;16.12;59.09;101324.94;5022436;28;20210;-72
2023/06/02 09:01:25;;;;;;;13.30;7.40;;;;;;;16.17;58.80;101317.38;5020195;28;20213;-74
2023/06/02 09:03:52;;;;;;;11.17;6.97;;;;;;;16.27;59.58;101323.78;5025653;28;20513;-72
2023/06/02 09:06:23;;;;;;;14.60;6.37;;;;;;;16.37;58.54;101327.44;5024577;28;20238;-74
2023/06/02 09:08:56;;;;;;;15.70;7.57;;;;;;;16.41;58.02;101339.69;5019154;28;20565;-70
2023/06/02 09:11:23;;;;;;;9.63;5.80;;;;;;;16.42;57.79;101344.09;5026136;28;20700;-70
2023/06/02 09:13:49;;;;;;;10.83;5.80;;;;;;;16.46;57.35;101337.50;5024163;28;20216;-75
2023/06/02 09:16:16;;;;;;;13.00;5.83;;;;;;;16.47;56.96;101328.47;5021153;28;20256;-71
2023/06/02 09:18:55;;;;;;;12.27;5.97;;;;;;;16.52;57.45;101328.94;5026374;28;20205;-75
2023/06/02 09:21:27;;;;;;;10.00;6.50;;;;;;;16.66;58.20;101328.75;5015863;28;20296;-72
2023/06/02 09:23:56;;;;;;;17.43;6.83;;;;;;;16.80;57.51;101334.91;5020088;28;20211;-72
2023/06/02 09:26:25;;;;;;;12.00;5.07;;;;;;;16.90;56.90;101330.50;5020536;28;20251;-74
2023/06/02 09:29:06;;;;;;;9.37;5.10;;;;;;;17.06;56.76;101324.78;5019701;28;20328;-72
2023/06/02 09:31:51;;;;;;;10.10;4.83;;;;;;;17.11;55.45;101327.97;5024293;28;20220;-73
2023/06/02 09:34:18;;;;;;;11.77;6.20;;;;;;;17.17;55.44;101331.03;5017185;28;20701;-73
2023/06/02 09:36:47;;;;;;;14.03;6.10;;;;;;;17.26;55.27;101332.97;5019071;28;20231;-71
2023/06/02 09:39:31;;;;;;;14.23;4.67;;;;;;;17.40;55.53;101330.97;5012568;28;20210;-73
2023/06/02 09:41:57;;;;;;;6.47;4.20;;;;;;;17.58;55.45;101334.88;5015543;28;20592;-72
2023/06/02 09:44:24;;;;;;;9.93;4.27;;;;;;;17.74;54.35;101335.34;5022150;28;20208;-72
2023/06/02 09:46:50;;;;;;;9.27;4.03;;;;;;;17.87;53.97;101328.00;5023088;28;20258;-71
2023/06/02 09:49:17;;;;;;;6.47;3.30;;;;;;;17.98;53.36;101337.88;5018622;28;20334;-73
2023/06/02 09:51:43;;;;;;;6.93;3.17;;;;;;;18.10;53.02;101338.66;5020200;28;20216;-73
2023/06/02 09:54:10;;;;;;;8.30;3.80;;;;;;;18.18;52.75;101330.81;5018375;28;20200;-72
2023/06/02 09:56:39;;;;;;;10.23;4.50;;;;;;;18.20;52.05;101339.63;5024912;28;20331;-73
2023/06/02 09:59:06;;;;;;;10.77;4.20;;;;;;;18.16;51.78;101332.75;5024745;28;20512;-71
2023/06/02 10:01:33;;;;;;;8.10;3.93;;;;;;;18.13;51.98;101339.25;5024188;28;20207;-74
2023/06/02 10:04:00;;;;;;;9.43;4.13;;;;;;;18.14;52.43;101342.81;5016610;28;20676;-71
2023/06/02 10:06:42;;;;;;;9.40;3.87;;;;;;;18.18;52.42;101349.66;5025797;28;20594;-71
2023/06/02 10:09:25;;;;;;;10.17;3.43;;;;;;;18.19;52.10;101337.91;5025681;28;20215;-74
2023/06/02 10:12:08;;;;;;;7.47;3.90;;;;;;;18.26;51.93;101344.50;5025358;28;20237;-72
2023/06/02 10:14:54;;;;;;;7.30;3.23;;;;;;;18.34;51.50;101344.69;5021018;28;20212;-71
2023/06/02 10:17:29;;;;;;;7.17;2.87;;;;;;;18.36;50.63;101340.88;5026223;28;20239;-73
2023/06/02 10:20:17;;;;;;;5.27;2.70;;;;;;;18.33;51.21;101335.75;5025511;28;20671;-72
2023/06/02 10:22:57;;;;;;;8.33;2.87;;;;;;;18.38;52.00;101333.53;5026883;28;20217;-73
2023/06/02 10:25:32;;;;;;;5.97;2.43;;;;;;;18.46;51.42;101329.28;5016288;28;20210;-74
2023/06/02 10:28:02;;;;;;;8.80;3.40;;;;;;;18.47;50.80;101329.16;5021285;28;20228;-71
2023/06/02 10:30:28;;;;;;;7.27;2.93;;;;;;;18.49;51.10;101329.03;5024175;28;20228;-72
2023/06/02 10:32:55;;;;;;;9.60;3.17;;;;;;;18.54;51.13;101322.28;5014006;28;20213;-71
2023/06/02 10:35:22;;;;;;;9.37;3.20;;;;;;;18.60;51.00;101321.78;5020389;28;20255;-72
2023/06/02 10:38:24;;;;;;;8.20;2.87;;;;;;;18.70;51.41;101320.00;5021906;28;20237;-75
2023/06/02 10:40:52;;;;;;;6.57;2.50;;;;;;;18.82;50.70;101319.91;5025316;28;20217;-72
2023/06/02 10:43:20;;;;;;;6.03;2.07;;;;;;;18.86;50.36;101324.03;5025915;28;20301;-74
2023/06/02 10:45:46;;;;;;;8.97;2.37;;;;;;;18.89;50.45;101327.34;5019331;28;20500;-74
2023/06/02 10:48:39;;;;;;;6.27;2.63;;;;;;;18.98;50.02;101320.28;5019329;28;20204;-75
2023/06/02 10:51:06;;;;;;;6.23;2.93;;;;;;;18.98;49.67;101320.28;5023691;28;20220;-71
2023/06/02 10:53:33;;;;;;;5.80;2.10;;;;;;;19.02;50.14;101310.91;5024896;28;20212;-73
2023/06/02 10:56:44;;;;;;;7.73;2.83;;;;;;;19.05;50.31;101313.34;5023774;28;20231;-71
2023/06/02 10:59:31;;;;;;;9.47;2.60;;;;;;;19.03;49.56;101312.63;4959128;28;20216;-71
2023/06/02 11:01:58;;;;;;;5.00;2.20;;;;;;;19.05;50.39;101316.03;5015210;28;20205;-73
2023/06/02 11:04:29;;;;;;;6.07;2.50;;;;;;;19.04;49.55;101309.78;5019059;28;20242;-73
2023/06/02 11:07:15;;;;;;;8.03;2.60;;;;;;;19.06;49.78;101312.34;5028632;28;20228;-74
2023/06/02 11:09:43;;;;;;;8.10;2.43;;;;;;;19.16;51.10;101305.16;5028534;28;20571;-73
2023/06/02 11:12:10;;;;;;;7.93;2.70;;;;;;;19.33;50.97;101309.06;5024121;28;20282;-74
2023/06/02 11:15:10;;;;;;;5.30;2.03;;;;;;;19.40;50.29;101299.38;5024836;28;20210;-73
2023/06/02 11:17:38;;;;;;;6.30;2.33;;;;;;;19.42;50.02;101309.06;5021411;28;20651;-74
2023/06/02 11:20:05;;;;;;;8.33;2.70;;;;;;;19.42;49.28;101302.81;5023628;28;20210;-71
2023/06/02 11:22:33;;;;;;;7.30;2.40;;;;;;;19.41;49.22;101318.16;5028384;28;20243;-73
2023/06/02 11:25:01;;;;;;;4.80;2.27;;;;;;;19.40;49.84;101315.59;5025670;28;20199;-76